createdAt,value
2023-04-28T00:04:20.680Z,982.30
2023-04-28T00:16:20.678Z,982.23
2023-04-28T00:28:33.497Z,982.33
2023-04-28T00:40:21.505Z,982.11
2023-04-28T00:52:21.986Z,982.16
2023-04-28T01:04:22.526Z,982.19
2023-04-28T01:16:22.912Z,982.22
2023-04-28T01:28:23.325Z,982.08
2023-04-28T01:40:23.788Z,982.12
2023-04-28T01:52:24.234Z,982.07
2023-04-28T02:04:24.683Z,982.18
2023-04-28T02:16:25.237Z,982.12
2023-04-28T02:28:25.600Z,982.05
2023-04-28T02:40:26.036Z,982.05
2023-04-28T02:52:26.450Z,982.11
2023-04-28T03:04:27.043Z,982.05
2023-04-28T03:16:27.483Z,981.95
2023-04-28T03:28:27.854Z,981.96
2023-04-28T03:40:28.310Z,981.72
2023-04-28T03:52:28.746Z,981.79
2023-04-28T04:04:29.385Z,981.64
2023-04-28T04:16:29.676Z,981.79
2023-04-28T04:28:30.099Z,981.77
2023-04-28T04:40:30.556Z,981.47
2023-04-28T04:52:31.056Z,981.72
2023-04-28T05:04:31.644Z,981.54
2023-04-28T05:16:31.950Z,981.42
2023-04-28T05:28:32.352Z,981.28
2023-04-28T05:40:32.835Z,981.38
2023-04-28T05:52:33.297Z,981.19
2023-04-28T06:04:33.943Z,981.08
2023-04-28T06:16:34.215Z,981.19
2023-04-28T06:28:34.658Z,981.12
2023-04-28T06:40:35.074Z,981.22
2023-04-28T06:52:39.267Z,981.14
2023-04-28T07:04:35.973Z,980.91
2023-04-28T07:16:36.499Z,981.09
2023-04-28T07:28:37.269Z,981.02
2023-04-28T07:40:37.345Z,980.90
2023-04-28T07:52:37.820Z,980.78
2023-04-28T08:04:38.542Z,980.72
2023-04-28T08:16:38.680Z,980.70
2023-04-28T08:28:39.150Z,980.59
2023-04-28T08:40:39.599Z,980.59
2023-04-28T08:52:40.098Z,980.58
2023-04-28T09:04:40.777Z,980.77
2023-04-28T09:16:40.986Z,980.69
2023-04-28T09:28:41.421Z,980.55
2023-04-28T09:40:41.895Z,980.41
2023-04-28T09:52:42.323Z,980.29
2023-04-28T10:04:42.894Z,980.03
2023-04-28T10:16:43.245Z,979.87
2023-04-28T10:28:43.711Z,979.66
2023-04-28T10:40:44.184Z,979.58
2023-04-28T10:52:44.627Z,979.28
2023-04-28T11:04:45.361Z,978.99
2023-04-28T11:16:45.600Z,978.86
2023-04-28T11:28:45.967Z,978.64
2023-04-28T11:40:46.401Z,978.73
2023-04-28T11:52:46.893Z,978.59
2023-04-28T12:04:47.380Z,978.62
2023-04-28T12:16:47.813Z,978.45
2023-04-28T12:28:48.236Z,978.45
2023-04-28T12:40:48.681Z,978.53
2023-04-28T12:52:49.173Z,978.55
2023-04-28T13:04:49.712Z,978.47
2023-04-28T13:16:50.045Z,978.26
2023-04-28T13:28:50.560Z,978.16
2023-04-28T13:40:50.992Z,977.97
2023-04-28T13:52:51.428Z,977.85
2023-04-28T14:04:52.371Z,977.86
2023-04-28T14:16:52.373Z,977.88
2023-04-28T14:28:52.820Z,977.78
2023-04-28T14:40:53.214Z,977.73
2023-04-28T14:52:53.671Z,977.73
2023-04-28T15:04:54.250Z,977.73
2023-04-28T15:16:54.627Z,977.80
2023-04-28T15:28:55.041Z,977.68
2023-04-28T15:40:55.501Z,977.57
2023-04-28T15:52:55.937Z,977.07
2023-04-28T16:04:56.448Z,976.88
2023-04-28T16:16:57.245Z,976.86
2023-04-28T16:28:57.344Z,976.86
2023-04-28T16:40:57.767Z,977.05
2023-04-28T16:52:58.240Z,977.10
2023-04-28T17:04:58.663Z,976.61
2023-04-28T17:16:59.145Z,976.70
2023-04-28T17:28:59.589Z,976.62
2023-04-28T17:41:00.022Z,976.50
2023-04-28T17:53:00.515Z,976.56
2023-04-28T18:05:00.944Z,976.39
2023-04-28T18:17:01.428Z,976.51
2023-04-28T18:29:01.933Z,976.46
2023-04-28T18:41:02.297Z,976.35
2023-04-28T18:53:02.779Z,976.46
2023-04-28T19:05:03.312Z,976.35
2023-04-28T19:17:03.802Z,976.23
2023-04-28T19:29:04.158Z,976.25
2023-04-28T19:41:04.588Z,976.39
2023-04-28T19:53:05.047Z,976.28
2023-04-28T20:05:05.545Z,976.32
2023-04-28T20:17:05.986Z,976.23
2023-04-28T20:29:08.375Z,976.26
2023-04-28T20:41:06.847Z,976.47
2023-04-28T20:53:07.320Z,976.37
2023-04-28T21:05:07.768Z,976.22
2023-04-28T21:17:08.202Z,976.20
2023-04-28T21:29:08.681Z,976.12
2023-04-28T21:41:09.116Z,976.06
2023-04-28T21:53:09.548Z,976.24
2023-04-28T22:05:10.026Z,976.38
2023-04-28T22:17:10.477Z,976.44
2023-04-28T22:29:10.958Z,976.34
2023-04-28T22:41:11.379Z,976.17
2023-04-28T22:53:11.830Z,976.05
2023-04-28T23:05:12.315Z,976.18
2023-04-28T23:17:12.776Z,976.08
2023-04-28T23:29:13.180Z,976.12
2023-04-28T23:41:13.667Z,976.15
2023-04-28T23:53:14.084Z,975.90
